Time;durP1;ratioP1;P1;durP2;ratioP2;P2;SDS_P1;SDS_P2;PMS_P1;PMS_P2;Temp;Humidity;BMP_temperature;BMP_pressure;BME280_temperature;BME280_humidity;BME280_pressure;Samples;Min_cycle;Max_cycle;Signal;HPM_P1;HPM_P2
2021/12/03 00:01:14;;;;;;;9.25;4.97;;;;;;;8.21;69.16;98300.97;4373911;32;34548;-57
2021/12/03 00:03:43;;;;;;;10.18;5.97;;;;;;;8.11;69.18;98304.41;4373545;32;33328;-56
2021/12/03 00:06:11;;;;;;;8.52;4.97;;;;;;;7.81;70.40;98301.34;4373534;32;33472;-57
2021/12/03 00:08:38;;;;;;;10.10;5.12;;;;;;;7.86;69.12;98301.00;4374039;32;34139;-56
2021/12/03 00:11:09;;;;;;;;;;;;;;;8.00;68.43;98298.16;4373805;32;33681;-56
2021/12/03 00:13:37;;;;;;;8.05;4.40;;;;;;;7.91;68.39;98303.25;4374270;32;33258;-57
2021/12/03 00:16:05;;;;;;;8.68;4.45;;;;;;;7.71;68.17;98297.69;4373428;32;34406;-57
2021/12/03 00:18:33;;;;;;;9.43;5.20;;;;;;;7.56;69.35;98289.19;4373353;32;34170;-57
2021/12/03 00:21:04;;;;;;;8.48;4.80;;;;;;;7.63;69.80;98295.63;4373822;32;33733;-56
2021/12/03 00:23:32;;;;;;;7.18;4.00;;;;;;;7.54;69.72;98296.34;4373246;32;34234;-57
2021/12/03 00:26:00;;;;;;;8.80;4.40;;;;;;;7.65;68.82;98325.25;4374062;32;34292;-57
2021/12/03 00:28:28;;;;;;;7.32;4.22;;;;;;;7.55;68.96;98313.75;4372984;32;34258;-56
2021/12/03 00:30:56;;;;;;;;;;;;;;;7.69;69.10;98310.94;4373699;32;32710;-56
2021/12/03 00:33:25;;;;;;;8.27;4.53;;;;;;;7.75;68.44;98319.34;4373471;32;33354;-56
2021/12/03 00:35:53;;;;;;;8.95;4.25;;;;;;;7.35;70.40;98327.47;4373490;32;33523;-56
2021/12/03 00:38:21;;;;;;;9.10;5.00;;;;;;;7.65;69.30;98337.56;4373313;32;34525;-57
2021/12/03 00:40:49;;;;;;;7.97;4.50;;;;;;;7.54;69.75;98335.72;4373195;32;34005;-56
2021/12/03 00:43:17;;;;;;;9.25;4.22;;;;;;;7.63;69.40;98324.53;4373563;32;33768;-57
2021/12/03 00:45:45;;;;;;;6.93;3.95;;;;;;;7.74;68.57;98333.44;4373319;32;34635;-57
2021/12/03 00:48:13;;;;;;;7.90;4.20;;;;;;;7.71;68.75;98345.00;4373891;32;35408;-56
2021/12/03 00:50:41;;;;;;;7.85;4.45;;;;;;;7.77;69.11;98346.34;4359324;32;35203;-56
2021/12/03 00:53:08;;;;;;;8.55;4.37;;;;;;;7.46;70.39;98357.31;4373502;32;33645;-57
2021/12/03 00:55:36;;;;;;;7.93;4.30;;;;;;;7.62;70.32;98358.81;4373539;32;34077;-57
2021/12/03 00:58:03;;;;;;;7.70;4.25;;;;;;;7.62;70.78;98357.03;4373172;32;34516;-57
2021/12/03 01:00:32;;;;;;;7.55;3.78;;;;;;;7.80;69.83;98354.00;4373197;32;34092;-57
2021/12/03 01:03:02;;;;;;;8.43;4.57;;;;;;;7.74;70.52;98349.22;4373034;32;33508;-57
2021/12/03 01:05:30;;;;;;;7.62;4.07;;;;;;;7.84;69.97;98355.47;4373586;32;33538;-56
2021/12/03 01:07:58;;;;;;;7.50;3.83;;;;;;;7.63;70.04;98366.56;4373209;32;34227;-57
2021/12/03 01:10:26;;;;;;;;;;;;;;;7.63;70.07;98363.94;4373242;32;33657;-57
2021/12/03 01:12:54;;;;;;;7.65;4.22;;;;;;;7.84;69.15;98364.19;4373592;32;33176;-57
2021/12/03 01:15:24;;;;;;;8.43;4.57;;;;;;;7.46;70.51;98365.19;4373005;32;35249;-57
2021/12/03 01:17:52;;;;;;;8.38;4.40;;;;;;;7.73;69.41;98366.75;4373518;32;34119;-57
2021/12/03 01:20:20;;;;;;;8.27;4.93;;;;;;;7.52;70.24;98374.38;4372660;32;33662;-57
2021/12/03 01:22:50;;;;;;;8.43;4.70;;;;;;;7.45;70.67;98381.03;4374721;32;33573;-57
2021/12/03 01:25:18;;;;;;;9.02;5.05;;;;;;;7.32;70.75;98381.06;4388109;32;33571;-57
2021/12/03 01:27:47;;;;;;;9.55;4.90;;;;;;;7.41;70.57;98374.34;4388191;32;35459;-57
2021/12/03 01:30:18;;;;;;;8.73;5.12;;;;;;;7.43;70.62;98375.06;4388558;32;33637;-57
2021/12/03 01:32:47;;;;;;;10.20;5.40;;;;;;;7.23;70.87;98382.56;4387782;32;33781;-57
2021/12/03 01:35:14;;;;;;;8.55;4.62;;;;;;;7.23;71.00;98379.94;4378976;32;33958;-57
2021/12/03 01:37:43;;;;;;;9.73;5.10;;;;;;;7.26;71.32;98381.50;4368742;32;34447;-57
2021/12/03 01:40:15;;;;;;;9.32;5.60;;;;;;;7.61;69.56;98373.72;4358017;32;34874;-57
2021/12/03 01:42:44;;;;;;;8.65;5.12;;;;;;;7.42;70.09;98387.34;4357915;32;33642;-57
2021/12/03 01:45:16;;;;;;;9.50;5.62;;;;;;;7.43;70.87;98385.56;4362252;32;34342;-57
2021/12/03 01:47:45;;;;;;;9.65;5.50;;;;;;;7.60;70.40;98400.09;4373261;32;33799;-57
2021/12/03 01:50:14;;;;;;;9.27;5.62;;;;;;;7.56;70.79;98399.50;4372588;32;34157;-57
2021/12/03 01:52:42;;;;;;;8.90;5.25;;;;;;;7.65;70.77;98404.06;4373210;32;32904;-57
2021/12/03 01:55:12;;;;;;;10.63;5.80;;;;;;;7.94;69.27;98402.94;4371987;32;33448;-57
2021/12/03 01:57:40;;;;;;;10.63;6.62;;;;;;;7.65;69.49;98396.19;4372756;32;35072;-57
2021/12/03 02:00:14;;;;;;;11.75;6.53;;;;;;;7.46;70.08;98399.31;4372778;32;34360;-57
2021/12/03 02:02:42;;;;;;;11.23;6.50;;;;;;;7.59;70.19;98395.81;4372634;32;34312;-57
2021/12/03 02:05:10;;;;;;;12.02;6.78;;;;;;;7.65;70.25;98393.56;4372709;32;33747;-57
2021/12/03 02:07:38;;;;;;;11.75;6.45;;;;;;;7.71;69.78;98408.06;4372249;32;34516;-57
2021/12/03 02:10:06;;;;;;;12.27;7.55;;;;;;;7.48;70.46;98423.69;4359187;32;34116;-58
2021/12/03 02:12:34;;;;;;;11.88;7.20;;;;;;;7.35;71.46;98424.63;4359011;32;33175;-57
2021/12/03 02:15:02;;;;;;;12.10;6.78;;;;;;;7.44;71.00;98410.88;4372345;32;33603;-56
2021/12/03 02:17:32;;;;;;;12.02;7.32;;;;;;;7.16;71.02;98401.50;4370840;32;34042;-56
2021/12/03 02:20:06;;;;;;;13.02;7.30;;;;;;;7.09;71.77;98403.69;4372111;32;33978;-57
2021/12/03 02:22:33;;;;;;;11.98;7.32;;;;;;;7.17;71.55;98411.03;4359188;32;34588;-56
2021/12/03 02:25:00;;;;;;;12.70;7.75;;;;;;;7.10;71.32;98423.75;4372030;32;33613;-57
2021/12/03 02:27:28;;;;;;;13.32;7.90;;;;;;;6.90;72.14;98425.97;4372232;32;34616;-57
2021/12/03 02:29:55;;;;;;;11.60;7.53;;;;;;;6.92;72.35;98425.00;4372142;32;34755;-57
2021/12/03 02:32:23;;;;;;;13.80;7.85;;;;;;;7.01;72.23;98427.00;4372158;32;32991;-57
2021/12/03 02:34:50;;;;;;;12.68;8.00;;;;;;;6.99;72.28;98434.97;4372436;32;33565;-57
2021/12/03 02:37:18;;;;;;;13.65;7.93;;;;;;;6.94;72.73;98446.72;4371878;32;34228;-57
2021/12/03 02:39:45;;;;;;;12.60;8.15;;;;;;;7.04;71.65;98451.25;4372500;32;34517;-57
2021/12/03 02:42:13;;;;;;;14.18;8.35;;;;;;;6.92;72.35;98457.34;4371746;32;33168;-58
2021/12/03 02:44:40;;;;;;;14.35;8.63;;;;;;;6.98;72.02;98458.69;4372448;32;33504;-57
2021/12/03 02:47:08;;;;;;;14.80;8.45;;;;;;;7.36;70.35;98463.94;4372027;32;34548;-57
2021/12/03 02:49:38;;;;;;;14.13;8.90;;;;;;;6.86;72.01;98469.09;4372052;32;33889;-57
2021/12/03 02:52:06;;;;;;;14.55;8.82;;;;;;;6.94;71.93;98468.59;4372020;32;33396;-57
2021/12/03 02:54:33;;;;;;;15.15;9.40;;;;;;;6.95;71.90;98482.53;4373672;32;34136;-57
2021/12/03 02:57:03;;;;;;;14.80;9.32;;;;;;;6.94;71.80;98478.22;4374759;32;35253;-56
2021/12/03 02:59:32;;;;;;;13.80;9.23;;;;;;;7.01;71.80;98490.00;4373866;32;33728;-57
2021/12/03 03:02:03;;;;;;;16.65;10.10;;;;;;;6.60;73.41;98488.38;4373621;32;33082;-57
2021/12/03 03:04:51;;;;;;;17.33;10.23;;;;;;;6.63;73.46;98501.25;4374253;32;33577;-57
2021/12/03 03:07:19;;;;;;;14.87;10.10;;;;;;;6.79;73.22;98498.50;4374049;32;33750;-56
2021/12/03 03:09:46;;;;;;;16.87;10.77;;;;;;;6.62;73.97;98510.91;4374209;32;34065;-57
2021/12/03 03:12:14;;;;;;;15.82;10.73;;;;;;;6.77;72.79;98519.56;4373204;32;34413;-57
2021/12/03 03:14:44;;;;;;;17.80;11.38;;;;;;;6.57;73.81;98517.41;4374376;32;34428;-56
2021/12/03 03:17:13;;;;;;;18.80;11.63;;;;;;;6.80;73.05;98523.75;4374031;32;35732;-57
2021/12/03 03:19:40;;;;;;;18.70;12.18;;;;;;;6.54;74.16;98530.75;4374075;32;33744;-58
2021/12/03 03:22:08;;;;;;;19.02;13.05;;;;;;;6.75;73.50;98528.50;4373660;32;33279;-57
2021/12/03 03:24:35;;;;;;;22.30;14.18;;;;;;;6.67;73.66;98527.22;4374103;32;33866;-57
2021/12/03 03:27:03;;;;;;;23.40;15.13;;;;;;;6.65;74.15;98528.22;4360695;32;34293;-57
2021/12/03 03:29:32;;;;;;;24.30;15.65;;;;;;;6.76;74.08;98536.25;4360016;32;33652;-57
2021/12/03 03:32:01;;;;;;;24.08;15.80;;;;;;;6.96;73.56;98529.69;4373891;32;34669;-57
2021/12/03 03:34:28;;;;;;;28.10;17.60;;;;;;;6.88;73.73;98556.44;4360140;32;34330;-57
2021/12/03 03:36:56;;;;;;;24.67;16.20;;;;;;;7.06;72.92;98551.75;4373879;32;34165;-58
2021/12/03 03:39:23;;;;;;;27.20;17.67;;;;;;;7.03;72.88;98557.19;4374283;32;33714;-57
2021/12/03 03:41:51;;;;;;;30.30;18.62;;;;;;;6.94;73.18;98552.56;4373705;32;35330;-57
2021/12/03 03:44:20;;;;;;;29.73;17.73;;;;;;;7.02;73.10;98570.44;4374178;32;33497;-57
2021/12/03 03:46:49;;;;;;;;;;;;;;;7.09;72.88;98574.31;4373455;32;35046;-57
2021/12/03 03:49:17;;;;;;;;;;;;;;;7.30;72.21;98566.78;4374560;32;33981;-57
2021/12/03 03:51:46;;;;;;;30.30;18.70;;;;;;;6.99;73.13;98581.97;4373729;32;33434;-56
2021/12/03 03:54:14;;;;;;;31.52;20.48;;;;;;;6.93;73.24;98579.75;4373960;32;33506;-57
2021/12/03 03:56:42;;;;;;;28.98;19.67;;;;;;;7.15;72.35;98566.00;4373197;32;34505;-57
2021/12/03 03:59:10;;;;;;;30.77;20.20;;;;;;;7.03;72.62;98590.47;4373114;32;33611;-57
2021/12/03 04:01:37;;;;;;;31.52;20.95;;;;;;;7.23;71.81;98583.87;4374251;32;33650;-57
2021/12/03 04:04:05;;;;;;;32.13;21.05;;;;;;;7.10;72.14;98579.47;4372224;32;35044;-57
2021/12/03 04:06:32;;;;;;;32.85;21.12;;;;;;;7.03;71.84;98579.97;4373744;32;34243;-57
2021/12/03 04:09:00;;;;;;;32.78;20.88;;;;;;;6.85;72.68;98574.16;4373772;32;33765;-56
2021/12/03 04:11:27;;;;;;;30.85;20.23;;;;;;;7.04;72.09;98585.13;4373669;32;33122;-57
2021/12/03 04:13:55;;;;;;;33.88;21.95;;;;;;;6.96;72.05;98584.81;4373692;32;34291;-56
2021/12/03 04:16:23;;;;;;;;;;;;;;;6.97;72.29;98604.84;4373396;32;35413;-56
2021/12/03 04:18:50;;;;;;;31.20;20.77;;;;;;;7.06;71.60;98604.25;4373659;32;34234;-57
2021/12/03 04:21:18;;;;;;;29.10;19.40;;;;;;;6.98;71.94;98617.03;4373185;32;32971;-56
2021/12/03 04:23:45;;;;;;;31.33;21.30;;;;;;;6.98;71.23;98632.78;4373895;32;33533;-56
2021/12/03 04:26:13;;;;;;;33.80;21.83;;;;;;;6.90;71.72;98638.53;4373341;32;34177;-56
2021/12/03 04:28:40;;;;;;;28.42;19.40;;;;;;;7.05;71.30;98633.22;4373115;32;33682;-56
2021/12/03 04:31:08;;;;;;;29.75;20.45;;;;;;;7.24;70.49;98643.34;4373852;32;32517;-57
2021/12/03 04:33:36;;;;;;;33.40;20.77;;;;;;;7.03;70.95;98642.97;4373469;32;34040;-56
2021/12/03 04:36:04;;;;;;;32.78;21.37;;;;;;;6.66;71.92;98656.69;4373584;32;34734;-57
2021/12/03 04:38:32;;;;;;;31.17;21.23;;;;;;;6.84;71.28;98659.94;4367165;32;34323;-57
2021/12/03 04:41:01;;;;;;;;;;;;;;;6.76;71.91;98658.72;4359329;32;33910;-57
2021/12/03 04:43:29;;;;;;;31.50;21.45;;;;;;;6.44;72.63;98672.94;4358533;32;34844;-57
2021/12/03 04:45:57;;;;;;;32.42;22.08;;;;;;;6.89;70.83;98680.63;4358089;32;35465;-57
2021/12/03 04:48:24;;;;;;;35.10;22.92;;;;;;;6.66;71.62;98669.78;4363541;32;33565;-57
2021/12/03 04:50:52;;;;;;;33.72;22.75;;;;;;;6.65;71.48;98686.50;4372584;32;33379;-56
2021/12/03 04:53:20;;;;;;;31.65;22.45;;;;;;;6.76;70.85;98698.06;4373568;32;33696;-57
2021/12/03 04:55:49;;;;;;;36.08;22.25;;;;;;;6.74;70.85;98697.34;4373031;32;34207;-56
2021/12/03 04:58:17;;;;;;;35.25;22.65;;;;;;;6.90;70.09;98701.53;4373609;32;35242;-57
2021/12/03 05:00:51;;;;;;;33.95;23.20;;;;;;;6.85;70.43;98710.63;4373205;32;33179;-57
2021/12/03 05:03:23;;;;;;;36.58;23.58;;;;;;;6.84;70.41;98712.41;4372895;32;33752;-57
2021/12/03 05:05:56;;;;;;;34.85;22.75;;;;;;;6.66;70.67;98716.19;4373387;32;33989;-57
2021/12/03 05:08:26;;;;;;;40.25;25.50;;;;;;;6.61;70.73;98719.09;4372995;32;33909;-56
2021/12/03 05:10:55;;;;;;;34.00;23.40;;;;;;;6.56;71.04;98729.03;4373615;32;33902;-57
2021/12/03 05:13:34;;;;;;;36.70;23.42;;;;;;;6.73;70.48;98727.13;4372593;32;34243;-56
2021/12/03 05:16:03;;;;;;;33.40;22.10;;;;;;;6.91;69.68;98725.97;4372697;32;35492;-56
2021/12/03 05:18:31;;;;;;;36.88;23.55;;;;;;;6.63;70.37;98737.34;4373211;32;34947;-56
2021/12/03 05:21:00;;;;;;;34.97;22.58;;;;;;;6.54;70.54;98749.28;4372724;32;33289;-57
2021/12/03 05:23:29;;;;;;;36.88;22.48;;;;;;;6.29;71.30;98750.75;4372823;32;33637;-57
2021/12/03 05:25:57;;;;;;;33.45;22.60;;;;;;;6.34;70.94;98761.00;4371207;32;34038;-56
2021/12/03 05:28:26;;;;;;;35.80;22.42;;;;;;;6.31;71.27;98761.16;4372804;32;34618;-57
2021/12/03 05:30:54;;;;;;;35.42;22.20;;;;;;;6.34;71.23;98763.63;4372787;32;33354;-56
2021/12/03 05:33:22;;;;;;;32.10;21.05;;;;;;;6.45;70.23;98779.50;4372859;32;33674;-57
2021/12/03 05:35:49;;;;;;;33.63;21.17;;;;;;;6.60;69.63;98795.25;4372250;32;34142;-57
2021/12/03 05:38:17;;;;;;;;;;;;;;;6.57;69.17;98784.94;4372605;32;35027;-56
2021/12/03 05:40:45;;;;;;;32.38;21.00;;;;;;;6.20;70.08;98795.88;4372189;32;33220;-56
2021/12/03 05:43:17;;;;;;;31.52;19.73;;;;;;;6.35;69.22;98802.00;4371785;32;34558;-58
2021/12/03 05:45:44;;;;;;;28.27;19.12;;;;;;;6.20;69.02;98810.78;4371968;32;33874;-56
2021/12/03 05:48:13;;;;;;;31.62;18.62;;;;;;;6.36;67.75;98827.28;4372124;32;33762;-56
2021/12/03 05:50:42;;;;;;;28.65;18.25;;;;;;;6.26;67.76;98836.63;4372722;32;33149;-56
2021/12/03 05:53:09;;;;;;;27.45;18.02;;;;;;;6.29;67.83;98841.69;4372327;32;33960;-56
2021/12/03 05:55:37;;;;;;;25.92;17.05;;;;;;;6.25;67.14;98848.06;4372735;32;34528;-56
2021/12/03 05:58:04;;;;;;;24.92;16.17;;;;;;;6.18;67.23;98865.91;4372459;32;34183;-56
2021/12/03 06:00:38;;;;;;;29.27;16.65;;;;;;;5.84;67.46;98867.00;4372023;32;33668;-57
2021/12/03 06:03:06;;;;;;;25.80;15.70;;;;;;;6.15;66.65;98873.13;4359253;32;33456;-57
2021/12/03 06:05:36;;;;;;;26.67;16.35;;;;;;;6.21;66.19;98878.00;4370713;32;34934;-56
2021/12/03 06:08:04;;;;;;;27.62;16.30;;;;;;;5.95;65.98;98880.34;4372247;32;33885;-57
2021/12/03 06:10:32;;;;;;;;;;;;;;;5.90;67.04;98885.81;4372688;32;33537;-56
2021/12/03 06:13:01;;;;;;;26.87;16.25;;;;;;;6.14;66.56;98889.78;4371928;32;33965;-56
2021/12/03 06:15:29;;;;;;;26.95;15.80;;;;;;;5.98;66.36;98898.53;4372362;32;34503;-56
2021/12/03 06:17:57;;;;;;;22.90;13.00;;;;;;;6.80;74.36;98897.19;4371772;32;34423;-57
2021/12/03 06:20:25;;;;;;;24.67;12.90;;;;;;;6.48;66.73;98905.22;4372735;32;33606;-56
2021/12/03 06:22:52;;;;;;;24.35;13.45;;;;;;;6.56;64.16;98902.16;4372346;32;33813;-56
2021/12/03 06:25:20;;;;;;;22.80;12.15;;;;;;;6.48;62.96;98915.72;4371555;32;33830;-56
2021/12/03 06:27:49;;;;;;;22.98;12.35;;;;;;;6.29;62.45;98922.97;4372863;32;33941;-57
2021/12/03 06:30:19;;;;;;;23.05;11.98;;;;;;;6.52;63.01;98920.78;4371393;32;33380;-57
2021/12/03 06:32:47;;;;;;;23.23;12.65;;;;;;;6.14;63.33;98937.78;4374374;32;34721;-56
2021/12/03 06:35:16;;;;;;;22.35;11.60;;;;;;;6.02;64.23;98941.13;4372828;32;33771;-57
2021/12/03 06:37:44;;;;;;;21.00;11.30;;;;;;;6.13;65.20;98946.59;4373132;32;34151;-56
2021/12/03 06:40:20;;;;;;;19.87;10.45;;;;;;;6.07;62.65;98953.03;4373429;32;32746;-57
2021/12/03 06:42:47;;;;;;;17.98;9.07;;;;;;;5.94;62.54;98966.91;4373546;32;33555;-57
2021/12/03 06:45:15;;;;;;;;;;;;;;;5.99;62.20;98981.47;4373686;32;34354;-57
2021/12/03 06:47:42;;;;;;;18.58;10.00;;;;;;;5.94;62.42;98982.63;4373238;32;34298;-57
2021/12/03 06:50:13;;;;;;;19.65;10.32;;;;;;;5.76;62.84;98987.94;4368176;32;33299;-56
2021/12/03 06:52:43;;;;;;;16.05;8.73;;;;;;;5.65;63.05;98982.44;4372522;32;33624;-57
2021/12/03 06:55:14;;;;;;;17.15;8.85;;;;;;;5.63;62.53;98993.00;4373100;32;33918;-56
2021/12/03 06:57:44;;;;;;;18.10;8.68;;;;;;;5.58;62.58;98994.16;4373784;32;34026;-57
2021/12/03 07:00:13;;;;;;;16.62;8.55;;;;;;;5.50;62.02;99005.06;4372515;32;32974;-57
2021/12/03 07:02:41;;;;;;;17.83;9.10;;;;;;;5.47;63.10;99013.94;4372371;32;35121;-56
2021/12/03 07:05:09;;;;;;;17.48;8.48;;;;;;;5.33;63.18;99022.50;4372841;32;34888;-57
2021/12/03 07:07:37;;;;;;;15.40;7.45;;;;;;;5.33;62.85;99021.66;4373955;32;34655;-56
2021/12/03 07:10:05;;;;;;;17.30;8.25;;;;;;;5.47;61.78;99021.78;4373490;32;33578;-56
2021/12/03 07:12:32;;;;;;;;;;;;;;;5.24;62.98;99036.06;4373747;32;33396;-56
2021/12/03 07:15:00;;;;;;;16.23;7.87;;;;;;;5.39;62.35;99038.81;4373591;32;34238;-57
2021/12/03 07:17:32;;;;;;;19.92;9.75;;;;;;;5.52;61.37;99040.72;4373473;32;34401;-57
2021/12/03 07:20:06;;;;;;;20.20;10.35;;;;;;;5.49;61.25;99035.63;4374106;32;33230;-57
2021/12/03 07:22:34;;;;;;;20.00;9.25;;;;;;;5.38;62.09;99045.81;4359665;32;34609;-56
2021/12/03 07:25:01;;;;;;;;;;;;;;;5.31;62.52;99058.41;4378744;32;34090;-56
2021/12/03 07:27:28;;;;;;;18.50;9.15;;;;;;;5.39;60.63;99065.00;4373791;32;34720;-56
2021/12/03 07:29:56;;;;;;;13.98;7.25;;;;;;;5.45;61.21;99080.41;4373648;32;33490;-57
2021/12/03 07:32:24;;;;;;;15.50;7.75;;;;;;;5.38;60.64;99089.50;4372742;32;33943;-57
2021/12/03 07:34:51;;;;;;;16.25;7.80;;;;;;;5.54;60.93;99103.47;4373514;32;34374;-57
2021/12/03 07:37:19;;;;;;;18.27;8.45;;;;;;;5.47;60.23;99105.59;4373710;32;33448;-57
2021/12/03 07:39:46;;;;;;;17.12;7.25;;;;;;;5.19;60.73;99113.16;4372563;32;34650;-56
2021/12/03 07:42:14;;;;;;;14.87;6.75;;;;;;;5.53;60.57;99117.50;4373909;32;34574;-56
2021/12/03 07:44:42;;;;;;;;;;;;;;;5.49;60.28;99129.06;4374032;32;35914;-57
2021/12/03 07:47:09;;;;;;;15.90;7.50;;;;;;;5.62;60.29;99127.53;4364901;32;34308;-56
2021/12/03 07:49:39;;;;;;;14.32;5.95;;;;;;;5.42;60.49;99139.00;4358775;32;33107;-57
2021/12/03 07:52:09;;;;;;;12.93;5.43;;;;;;;5.25;59.89;99134.63;4358341;32;33428;-57
2021/12/03 07:54:36;;;;;;;17.17;5.65;;;;;;;5.71;58.56;99147.97;4368629;32;34991;-57
2021/12/03 07:57:04;;;;;;;15.85;6.30;;;;;;;5.58;58.88;99141.66;4372838;32;34500;-56
2021/12/03 07:59:32;;;;;;;20.45;8.63;;;;;;;5.78;58.30;99152.88;4372739;32;32646;-56
2021/12/03 08:01:59;;;;;;;33.28;13.60;;;;;;;5.30;59.39;99160.56;4372260;32;33808;-56
2021/12/03 08:04:27;;;;;;;14.07;6.15;;;;;;;5.42;58.68;99177.44;4372525;32;34003;-56
2021/12/03 08:06:55;;;;;;;16.42;6.75;;;;;;;5.46;57.73;99179.81;4371932;32;33747;-57
2021/12/03 08:09:23;;;;;;;11.52;5.53;;;;;;;5.51;58.51;99179.59;4372830;32;33940;-56
2021/12/03 08:11:50;;;;;;;15.88;6.57;;;;;;;5.52;58.03;99191.75;4373695;32;33982;-56
2021/12/03 08:14:18;;;;;;;13.20;6.00;;;;;;;5.55;59.09;99211.72;4372431;32;34278;-56
2021/12/03 08:16:45;;;;;;;14.18;6.00;;;;;;;5.53;59.16;99211.78;4373529;32;33838;-56
2021/12/03 08:19:13;;;;;;;12.95;6.03;;;;;;;5.48;58.79;99214.63;4373081;32;34227;-57
2021/12/03 08:21:40;;;;;;;19.73;8.38;;;;;;;5.51;58.88;99221.50;4372555;32;34452;-56
2021/12/03 08:24:08;;;;;;;16.58;8.02;;;;;;;6.37;81.03;99224.09;4373046;32;35403;-56
2021/12/03 08:26:35;;;;;;;13.50;5.78;;;;;;;6.11;66.30;99227.16;4372869;32;34708;-56
2021/12/03 08:29:04;;;;;;;13.35;5.68;;;;;;;6.00;58.75;99234.75;4373950;32;33359;-56
2021/12/03 08:31:32;;;;;;;12.63;5.07;;;;;;;6.29;55.75;99235.00;4373080;32;34984;-56
2021/12/03 08:34:00;;;;;;;11.27;4.47;;;;;;;6.01;55.82;99233.84;4373945;32;34123;-57
2021/12/03 08:36:27;;;;;;;13.27;4.20;;;;;;;5.88;55.50;99235.34;4373289;32;34475;-56
2021/12/03 08:38:55;;;;;;;11.15;4.43;;;;;;;5.82;55.16;99241.75;4373550;32;33315;-56
2021/12/03 08:41:23;;;;;;;;;;;;;;;5.84;55.47;99249.53;4373981;32;33478;-57
2021/12/03 08:43:50;;;;;;;12.40;4.57;;;;;;;5.85;54.00;99249.44;4373482;32;35310;-56
2021/12/03 08:46:29;;;;;;;11.95;4.32;;;;;;;5.78;54.88;99260.31;4373920;32;33647;-56
2021/12/03 08:49:07;;;;;;;11.23;4.20;;;;;;;6.00;53.17;99267.97;4373033;32;33533;-56
2021/12/03 08:56:57;;;;;;;11.57;4.95;;;;;;;6.02;53.93;99289.72;4372956;32;34168;-56
2021/12/03 08:59:25;;;;;;;14.68;6.53;;;;;;;5.97;54.01;99286.47;4373785;32;33350;-56
2021/12/03 09:01:52;;;;;;;12.55;4.78;;;;;;;5.82;55.00;99295.94;4373248;32;34022;-56
2021/12/03 09:04:19;;;;;;;10.35;4.37;;;;;;;5.98;53.27;99293.41;4373750;32;34286;-57
2021/12/03 09:06:47;;;;;;;10.63;4.40;;;;;;;6.12;52.63;99301.41;4373389;32;33965;-56
2021/12/03 09:09:15;;;;;;;9.65;4.80;;;;;;;5.66;54.05;99315.03;4373232;32;34230;-56
2021/12/03 09:11:42;;;;;;;10.75;4.72;;;;;;;5.77;53.31;99317.09;4373368;32;33235;-56
2021/12/03 09:17:19;;;;;;;9.30;4.47;;;;;;;5.81;53.61;99323.03;4355671;32;33816;-56
2021/12/03 09:19:57;;;;;;;13.73;4.95;;;;;;;6.01;53.63;99346.53;4373059;32;33531;-56
2021/12/03 09:25:03;;;;;;;10.07;4.60;;;;;;;5.85;54.16;99341.16;4373407;32;35171;-56
2021/12/03 09:27:31;;;;;;;12.68;4.85;;;;;;;6.00;53.40;99339.59;4372669;32;33577;-56
2021/12/03 09:29:58;;;;;;;13.00;4.95;;;;;;;6.31;53.18;99351.13;4359893;32;33951;-56
2021/12/03 09:32:30;;;;;;;12.05;4.53;;;;;;;6.39;52.28;99346.34;4372817;32;34032;-57
2021/12/03 09:34:58;;;;;;;9.07;4.50;;;;;;;6.12;52.17;99341.56;4373079;32;34622;-56
2021/12/03 09:37:26;;;;;;;12.75;4.65;;;;;;;5.76;51.76;99333.75;4372901;32;34240;-56
2021/12/03 09:39:55;;;;;;;9.45;4.37;;;;;;;5.95;52.65;99340.69;4372719;32;33756;-56
2021/12/03 09:42:23;;;;;;;11.43;3.97;;;;;;;6.15;50.94;99334.50;4373346;32;35407;-56
2021/12/03 09:44:51;;;;;;;9.85;3.60;;;;;;;6.11;50.00;99331.19;4372555;32;34208;-56
2021/12/03 09:47:18;;;;;;;;;;;;;;;5.85;50.56;99338.53;4373515;32;34692;-56
2021/12/03 09:49:53;;;;;;;8.82;3.97;;;;;;;6.03;49.43;99342.06;4359120;32;34431;-56
2021/12/03 09:54:51;;;;;;;10.60;3.80;;;;;;;6.17;46.55;99335.28;4373182;32;34041;-56
2021/12/03 10:36:39;;;;;;;11.00;4.20;;;;;;;6.23;49.83;99363.81;4373638;32;34390;-56
2021/12/03 10:56:18;;;;;;;12.40;4.35;;;;;;;6.24;48.35;99376.84;4367343;32;32068;-56
2021/12/03 10:59:01;;;;;;;11.45;4.60;;;;;;;5.96;49.31;99379.12;4373276;32;33521;-56
2021/12/03 12:32:49;;;;;;;12.25;4.07;;;;;;;6.63;44.39;99464.06;4372820;32;33696;-56
2021/12/03 13:08:15;;;;;;;9.65;4.45;;;;;;;5.84;48.63;99499.31;4387146;32;34315;-56
2021/12/03 13:32:29;;;;;;;10.15;4.53;;;;;;;6.12;49.43;99500.66;4372973;32;33465;-56
2021/12/03 14:01:33;;;;;;;11.55;4.30;;;;;;;5.83;49.41;99533.44;4372915;32;33823;-56
2021/12/03 14:21:49;;;;;;;9.68;4.22;;;;;;;5.85;50.22;99557.81;4371592;32;34132;-56
2021/12/03 14:38:12;;;;;;;13.65;6.30;;;;;;;6.30;50.80;99590.69;4371049;32;32944;-56
2021/12/03 14:56:12;;;;;;;56.42;24.23;;;;;;;5.77;49.17;99599.25;4374091;32;34138;-56
2021/12/03 14:58:54;;;;;;;38.40;18.98;;;;;;;5.69;49.43;99605.66;4373992;32;33586;-55
2021/12/03 15:01:30;;;;;;;34.63;18.33;;;;;;;5.64;49.94;99605.03;4362250;32;34732;-56
2021/12/03 15:07:17;;;;;;;22.83;12.50;;;;;;;5.32;49.95;99606.44;4373876;32;34897;-56
2021/12/03 15:09:47;;;;;;;14.60;8.85;;;;;;;5.17;50.75;99607.94;4373676;32;33917;-56
2021/12/03 15:39:17;;;;;;;16.05;9.50;;;;;;;5.19;52.57;99655.81;4373531;32;33876;-56
2021/12/03 15:53:18;;;;;;;45.15;17.73;;;;;;;4.74;50.00;99644.56;4373922;32;33921;-56
2021/12/03 16:04:00;;;;;;;23.45;12.10;;;;;;;4.49;52.91;99676.06;4373612;32;33111;-56
2021/12/03 16:09:21;;;;;;;22.45;12.23;;;;;;;4.66;52.61;99687.66;4373237;32;34202;-55
2021/12/03 16:44:23;;;;;;;57.58;30.52;;;;;;;4.08;49.02;99716.84;4373316;32;33472;-55
2021/12/03 16:47:16;;;;;;;32.23;16.73;;;;;;;4.33;48.03;99722.00;4373301;32;33931;-56
2021/12/03 16:50:29;;;;;;;16.23;9.50;;;;;;;3.98;49.96;99720.69;4373313;32;34331;-56
2021/12/03 16:52:51;;;;;;;16.08;9.40;;;;;;;3.94;53.91;99722.56;4373318;32;34519;-56
2021/12/03 16:55:19;;;;;;;17.45;8.45;;;;;;;4.70;71.63;99731.94;4373260;32;33843;-55
2021/12/03 16:57:50;;;;;;;15.07;8.40;;;;;;;4.56;51.94;99731.59;4372751;32;34660;-56
2021/12/03 17:00:34;;;;;;;15.65;8.93;;;;;;;4.40;50.27;99740.91;4372725;32;33453;-56
2021/12/03 17:03:10;;;;;;;16.42;10.73;;;;;;;4.41;49.92;99740.03;4372665;32;34850;-55
2021/12/03 17:46:52;;;;;;;16.35;9.02;;;;;;;3.49;48.56;99757.16;4373303;32;34212;-55
2021/12/03 17:49:22;;;;;;;18.10;10.85;;;;;;;3.37;48.59;99755.81;4371567;32;33734;-56
2021/12/03 17:57:38;;;;;;;27.08;15.43;;;;;;;3.17;48.89;99760.84;4349122;32;35099;-56
2021/12/03 18:00:13;;;;;;;24.17;13.13;;;;;;;3.25;48.84;99753.59;4370229;32;33959;-56
2021/12/03 18:02:46;;;;;;;24.12;13.43;;;;;;;3.18;48.89;99763.41;4372700;32;34583;-56
2021/12/03 18:10:28;;;;;;;22.10;12.57;;;;;;;3.07;49.64;99768.94;4387193;32;34644;-55
2021/12/03 18:56:34;;;;;;;18.48;10.90;;;;;;;2.99;50.42;99764.87;4379706;32;34321;-53
2021/12/03 18:59:07;;;;;;;16.80;10.20;;;;;;;2.90;50.67;99760.78;4373140;32;33750;-54
2021/12/03 19:01:36;;;;;;;16.02;9.10;;;;;;;2.87;50.25;99777.41;4372868;32;35540;-54
2021/12/03 19:09:25;;;;;;;17.45;10.38;;;;;;;2.60;51.30;99758.22;4373033;32;33534;-54
2021/12/03 19:14:25;;;;;;;17.73;10.15;;;;;;;2.82;51.00;99763.63;4373616;32;33684;-53
2021/12/03 19:16:57;;;;;;;19.20;11.10;;;;;;;2.86;51.12;99757.41;4373671;32;32436;-53
2021/12/03 19:19:27;;;;;;;18.25;10.77;;;;;;;2.75;51.75;99757.75;4373277;32;33571;-53
2021/12/03 19:21:57;;;;;;;28.92;15.68;;;;;;;2.67;51.97;99758.88;4373411;32;34964;-53
2021/12/03 19:24:26;;;;;;;51.22;26.37;;;;;;;2.56;51.85;99760.06;4372980;32;34842;-53
2021/12/03 19:26:54;;;;;;;66.90;32.72;;;;;;;2.79;51.30;99775.91;4358387;32;33998;-53
2021/12/03 19:29:23;;;;;;;38.97;21.87;;;;;;;2.60;52.17;99767.75;4371566;32;33374;-53
2021/12/03 19:31:52;;;;;;;24.65;13.73;;;;;;;2.71;51.55;99765.69;4373061;32;35556;-53
2021/12/03 19:34:21;;;;;;;22.13;13.27;;;;;;;2.33;52.87;99762.47;4372656;32;34056;-53
2021/12/03 19:36:48;;;;;;;22.90;13.40;;;;;;;2.47;52.45;99770.75;4373329;32;33993;-53
2021/12/03 19:39:18;;;;;;;21.80;12.02;;;;;;;2.54;52.49;99780.09;4372643;32;34046;-53
2021/12/03 19:44:41;;;;;;;20.47;12.23;;;;;;;2.37;52.96;99771.91;4373222;32;34796;-53